createdAt,value
2018-09-28T00:02:02.353Z,53.64
2018-09-28T00:04:31.096Z,53.51
2018-09-28T00:06:59.699Z,52.82
2018-09-28T00:09:28.379Z,52.93
2018-09-28T00:11:57.297Z,53.42
2018-09-28T00:14:25.867Z,53.83
2018-09-28T00:16:54.412Z,53.48
2018-09-28T00:19:22.964Z,53.03
2018-09-28T00:21:51.652Z,53.31
2018-09-28T00:24:20.267Z,53.53
2018-09-28T00:26:49.439Z,53.69
2018-09-28T00:29:18.317Z,54.50
2018-09-28T00:31:46.881Z,55.48
2018-09-28T00:34:15.436Z,55.71
2018-09-28T00:36:44.204Z,55.56
2018-09-28T00:39:13.053Z,55.15
2018-09-28T00:41:41.669Z,54.02
2018-09-28T00:44:10.318Z,54.85
2018-09-28T00:46:38.884Z,55.84
2018-09-28T00:49:07.452Z,56.13
2018-09-28T00:51:36.032Z,56.88
2018-09-28T00:54:04.605Z,56.50
2018-09-28T00:56:33.416Z,56.28
2018-09-28T00:59:02.897Z,56.87
2018-09-28T01:01:31.452Z,56.41
2018-09-28T01:03:59.984Z,57.42
2018-09-28T01:06:28.703Z,57.48
2018-09-28T01:08:59.606Z,57.03
2018-09-28T01:11:28.852Z,57.19
2018-09-28T01:13:57.425Z,57.45
2018-09-28T01:16:26.204Z,56.42
2018-09-28T01:18:55.196Z,57.04
2018-09-28T01:21:23.944Z,57.04
2018-09-28T01:23:52.513Z,57.01
2018-09-28T01:26:21.063Z,57.57
2018-09-28T01:28:49.808Z,56.96
2018-09-28T01:31:18.372Z,57.61
2018-09-28T01:33:46.954Z,57.76
2018-09-28T01:36:15.731Z,58.06
2018-09-28T01:38:44.264Z,58.33
2018-09-28T01:41:12.804Z,58.05
2018-09-28T01:43:41.389Z,57.74
2018-09-28T01:46:10.088Z,57.93
2018-09-28T01:48:38.861Z,58.02
2018-09-28T01:51:07.431Z,58.32
2018-09-28T01:53:36.175Z,58.54
2018-09-28T01:56:04.723Z,59.39
2018-09-28T01:58:33.239Z,60.10
2018-09-28T02:01:01.884Z,60.23
2018-09-28T02:03:30.393Z,60.27
2018-09-28T02:05:58.919Z,60.36
2018-09-28T02:08:27.452Z,61.12
2018-09-28T02:10:55.987Z,61.29
2018-09-28T02:13:24.528Z,61.49
2018-09-28T02:15:53.182Z,61.46
2018-09-28T02:18:21.665Z,61.21
2018-09-28T02:20:50.215Z,61.47
2018-09-28T02:23:18.772Z,61.98
2018-09-28T02:25:47.290Z,62.15
2018-09-28T02:28:15.829Z,61.81
2018-09-28T02:30:44.461Z,61.76
2018-09-28T02:33:13.032Z,61.76
2018-09-28T02:35:41.567Z,62.40
2018-09-28T02:38:10.116Z,62.36
2018-09-28T02:40:38.663Z,62.50
2018-09-28T02:43:07.193Z,62.33
2018-09-28T02:45:35.740Z,62.82
2018-09-28T02:48:04.310Z,62.19
2018-09-28T02:50:32.884Z,62.83
2018-09-28T02:53:01.422Z,62.32
2018-09-28T02:55:29.968Z,62.79
2018-09-28T02:57:58.505Z,62.89
2018-09-28T03:00:27.048Z,62.30
2018-09-28T03:02:55.576Z,62.97
2018-09-28T03:05:24.149Z,62.79
2018-09-28T03:07:52.675Z,63.13
2018-09-28T03:10:21.202Z,62.43
2018-09-28T03:12:49.747Z,62.78
2018-09-28T03:15:18.264Z,62.96
2018-09-28T03:17:46.800Z,62.75
2018-09-28T03:20:15.926Z,63.64
2018-09-28T03:22:44.479Z,63.22
2018-09-28T03:25:13.028Z,63.24
2018-09-28T03:27:41.552Z,63.42
2018-09-28T03:30:10.096Z,63.22
2018-09-28T03:32:38.663Z,63.16
2018-09-28T03:35:07.227Z,62.50
2018-09-28T03:37:35.769Z,62.92
2018-09-28T03:40:04.300Z,62.93
2018-09-28T03:42:32.864Z,63.35
2018-09-28T03:45:01.384Z,64.02
2018-09-28T03:47:29.998Z,64.33
2018-09-28T03:49:58.912Z,64.53
2018-09-28T03:52:27.480Z,64.66
2018-09-28T03:54:56.039Z,63.75
2018-09-28T03:57:24.595Z,63.39
2018-09-28T03:59:53.186Z,63.71
2018-09-28T04:02:22.457Z,63.97
2018-09-28T04:04:51.020Z,64.17
2018-09-28T04:07:19.595Z,64.04
2018-09-28T04:09:48.132Z,64.22
2018-09-28T04:12:16.672Z,64.27
2018-09-28T04:14:45.184Z,64.33
2018-09-28T04:17:13.776Z,64.32
2018-09-28T04:19:42.295Z,64.22
2018-09-28T04:22:10.832Z,64.35
2018-09-28T04:24:39.351Z,64.45
2018-09-28T04:27:07.972Z,64.99
2018-09-28T04:29:36.712Z,65.09
2018-09-28T04:32:05.359Z,65.00
2018-09-28T04:34:33.885Z,65.27
2018-09-28T04:37:02.409Z,64.97
2018-09-28T04:39:30.944Z,64.88
2018-09-28T04:41:59.465Z,65.01
2018-09-28T04:47:18.331Z,65.74
2018-09-28T04:49:46.871Z,66.15
2018-09-28T04:52:15.436Z,66.03
2018-09-28T04:54:43.975Z,65.63
2018-09-28T04:57:12.595Z,65.86
2018-09-28T04:59:41.226Z,66.02
2018-09-28T05:04:59.699Z,65.97
2018-09-28T05:07:28.247Z,65.87
2018-09-28T05:09:56.771Z,65.67
2018-09-28T05:12:25.311Z,65.81
2018-09-28T05:14:53.848Z,66.08
2018-09-28T05:17:22.417Z,65.76
2018-09-28T05:19:50.936Z,65.64
2018-09-28T05:22:19.464Z,65.40
2018-09-28T05:24:50.012Z,65.98
2018-09-28T05:27:18.636Z,66.19
2018-09-28T05:29:47.160Z,66.29
2018-09-28T05:32:15.786Z,66.23
2018-09-28T05:34:44.268Z,66.51
2018-09-28T05:37:12.934Z,66.94
2018-09-28T05:39:41.433Z,66.87
2018-09-28T05:42:09.960Z,66.18
2018-09-28T05:44:38.497Z,66.29
2018-09-28T05:47:07.055Z,66.43
2018-09-28T05:49:35.581Z,66.06
2018-09-28T05:52:04.112Z,65.97
2018-09-28T05:54:32.723Z,66.24
2018-09-28T05:57:01.260Z,65.95
2018-09-28T05:59:34.897Z,65.73
2018-09-28T06:02:08.819Z,65.05
2018-09-28T06:04:42.595Z,65.50
2018-09-28T06:07:11.159Z,65.98
2018-09-28T06:09:39.724Z,66.54
2018-09-28T06:12:08.259Z,66.13
2018-09-28T06:14:36.806Z,67.10
2018-09-28T06:17:05.539Z,66.97
2018-09-28T06:19:34.079Z,67.45
2018-09-28T06:22:02.616Z,66.43
2018-09-28T06:24:31.178Z,66.45
2018-09-28T06:26:59.684Z,66.49
2018-09-28T06:29:28.264Z,65.86
2018-09-28T06:31:56.793Z,67.10
2018-09-28T06:34:25.432Z,66.74
2018-09-28T06:36:54.041Z,66.94
2018-09-28T06:39:22.632Z,66.52
2018-09-28T06:41:51.324Z,66.06
2018-09-28T06:44:19.803Z,65.85
2018-09-28T06:46:48.347Z,65.00
2018-09-28T06:49:16.905Z,64.90
2018-09-28T06:51:45.440Z,64.50
2018-09-28T06:54:14.065Z,63.82
2018-09-28T06:56:42.547Z,63.14
2018-09-28T06:59:11.111Z,64.73
2018-09-28T07:01:39.659Z,60.66
2018-09-28T07:04:08.370Z,60.63
2018-09-28T07:06:36.859Z,60.02
2018-09-28T07:09:08.005Z,59.93
2018-09-28T07:11:36.555Z,58.97
2018-09-28T07:14:05.128Z,58.29
2018-09-28T07:16:33.669Z,56.89
2018-09-28T07:21:54.460Z,55.82
2018-09-28T07:24:23.104Z,55.83
2018-09-28T07:26:51.600Z,54.20
2018-09-28T07:29:20.136Z,52.94
2018-09-28T07:31:48.815Z,53.28
2018-09-28T07:34:17.336Z,52.47
2018-09-28T07:36:45.939Z,52.50
2018-09-28T07:39:14.478Z,51.48
2018-09-28T07:41:43.055Z,51.36
2018-09-28T07:44:11.580Z,51.60
2018-09-28T07:46:40.125Z,51.72
2018-09-28T07:49:08.715Z,51.06
2018-09-28T07:51:37.221Z,51.37
2018-09-28T07:54:05.762Z,51.58
2018-09-28T07:56:34.294Z,51.50
2018-09-28T07:59:03.023Z,50.20
2018-09-28T08:01:31.547Z,50.55
2018-09-28T08:04:00.085Z,50.02
2018-09-28T08:06:28.649Z,48.67
2018-09-28T08:08:57.208Z,49.70
2018-09-28T08:11:25.752Z,49.07
2018-09-28T08:13:54.330Z,48.59
2018-09-28T08:16:22.879Z,48.90
2018-09-28T08:18:51.412Z,48.43
2018-09-28T08:21:30.324Z,48.49
2018-09-28T08:23:58.932Z,47.86
2018-09-28T08:26:27.483Z,47.75
2018-09-28T08:28:56.124Z,48.03
2018-09-28T08:31:24.727Z,48.51
2018-09-28T08:33:53.250Z,48.55
2018-09-28T08:36:21.850Z,47.64
2018-09-28T08:38:50.355Z,48.49
2018-09-28T08:41:18.932Z,47.83
2018-09-28T08:43:47.535Z,47.42
2018-09-28T08:46:16.006Z,47.15
2018-09-28T08:48:44.563Z,48.03
2018-09-28T08:51:13.174Z,46.77
2018-09-28T08:53:41.781Z,47.04
2018-09-28T08:56:11.288Z,45.41
2018-09-28T08:58:39.826Z,46.27
2018-09-28T09:03:58.251Z,45.81
2018-09-28T09:06:26.895Z,45.53
2018-09-28T09:08:55.452Z,46.13
2018-09-28T09:11:23.977Z,45.35
2018-09-28T09:13:52.563Z,44.59
2018-09-28T09:16:21.108Z,43.92
2018-09-28T09:18:49.624Z,44.42
2018-09-28T09:21:18.176Z,45.16
2018-09-28T09:23:46.740Z,44.66
2018-09-28T09:26:15.306Z,45.12
2018-09-28T09:28:43.837Z,45.21
2018-09-28T09:31:12.388Z,44.83
2018-09-28T09:33:40.955Z,45.65
2018-09-28T09:36:09.507Z,43.80
2018-09-28T09:38:38.051Z,44.02
2018-09-28T09:41:07.069Z,43.27
2018-09-28T09:43:35.637Z,43.42
2018-09-28T09:46:04.193Z,42.57
2018-09-28T09:48:32.723Z,41.74
2018-09-28T09:51:01.331Z,41.73
2018-09-28T09:53:29.880Z,40.50
2018-09-28T09:55:58.457Z,39.60
2018-09-28T09:58:27.008Z,40.35
2018-09-28T10:01:00.628Z,40.78
2018-09-28T10:03:34.492Z,40.42
2018-09-28T10:06:03.888Z,40.55
2018-09-28T10:08:32.436Z,40.25
2018-09-28T10:11:01.035Z,40.25
2018-09-28T10:13:29.628Z,40.06
2018-09-28T10:15:58.255Z,39.79
2018-09-28T10:18:26.778Z,41.20
2018-09-28T10:20:55.348Z,41.15
2018-09-28T10:23:23.871Z,41.69
2018-09-28T10:25:52.549Z,39.68
2018-09-28T10:28:21.217Z,40.28
2018-09-28T10:30:49.991Z,41.13
2018-09-28T10:33:18.528Z,41.01
2018-09-28T10:35:47.358Z,41.50
2018-09-28T10:38:17.492Z,42.21
2018-09-28T10:40:46.158Z,42.65
2018-09-28T10:43:14.684Z,41.69
2018-09-28T10:45:43.318Z,41.22
2018-09-28T10:48:11.836Z,41.34
2018-09-28T10:50:40.404Z,41.43
2018-09-28T10:55:59.273Z,40.38
2018-09-28T10:58:27.915Z,40.56
2018-09-28T11:00:56.448Z,41.35
2018-09-28T11:03:25.084Z,41.23
2018-09-28T11:05:53.656Z,41.21
2018-09-28T11:08:22.440Z,40.73
2018-09-28T11:10:51.084Z,40.48
2018-09-28T11:13:19.599Z,39.45
2018-09-28T11:15:48.215Z,40.07
2018-09-28T11:18:16.742Z,40.92
2018-09-28T11:20:45.305Z,40.41
2018-09-28T11:23:13.868Z,40.95
2018-09-28T11:25:42.417Z,39.52
2018-09-28T11:28:10.988Z,39.94
2018-09-28T11:30:39.524Z,39.49
2018-09-28T11:33:08.117Z,40.63
2018-09-28T11:35:36.621Z,39.45
2018-09-28T11:38:05.185Z,39.40
2018-09-28T11:40:42.080Z,39.88
2018-09-28T11:43:10.652Z,38.63
2018-09-28T11:45:39.300Z,38.70
2018-09-28T11:48:07.871Z,39.79
2018-09-28T11:50:36.451Z,40.21
2018-09-28T11:53:05.038Z,41.05
2018-09-28T11:55:33.608Z,39.99
2018-09-28T11:58:02.179Z,39.80
2018-09-28T12:00:30.745Z,39.44
2018-09-28T12:02:59.296Z,39.03
2018-09-28T12:05:27.863Z,39.10
2018-09-28T12:07:56.431Z,39.16
2018-09-28T12:10:24.964Z,38.19
2018-09-28T12:12:53.517Z,39.16
2018-09-28T12:15:22.166Z,39.39
2018-09-28T12:17:50.676Z,39.16
2018-09-28T12:20:19.274Z,40.15
2018-09-28T12:22:47.812Z,40.08
2018-09-28T12:25:16.497Z,40.53
2018-09-28T12:27:45.203Z,39.29
2018-09-28T12:30:13.715Z,39.24
2018-09-28T12:32:42.294Z,38.81
2018-09-28T12:35:10.829Z,38.87
2018-09-28T12:37:39.384Z,39.16
2018-09-28T12:40:08.045Z,39.92
2018-09-28T12:42:36.745Z,40.18
2018-09-28T12:45:05.419Z,39.90
2018-09-28T12:47:33.897Z,40.15
2018-09-28T12:50:02.476Z,40.46
2018-09-28T12:52:37.975Z,39.66
2018-09-28T12:55:06.560Z,39.40
2018-09-28T12:57:35.089Z,40.02
2018-09-28T13:00:03.691Z,39.88
2018-09-28T13:02:32.288Z,39.93
2018-09-28T13:05:00.899Z,40.12
2018-09-28T13:07:29.456Z,40.03
2018-09-28T13:09:58.012Z,39.65
2018-09-28T13:12:26.663Z,40.27
2018-09-28T13:14:55.272Z,40.34
2018-09-28T13:17:23.755Z,40.14
2018-09-28T13:19:52.283Z,39.57
2018-09-28T13:22:20.864Z,40.24
2018-09-28T13:24:49.453Z,39.70
2018-09-28T13:27:17.994Z,39.24
2018-09-28T13:29:46.559Z,39.31
2018-09-28T13:32:15.171Z,38.93
2018-09-28T13:34:43.751Z,39.35
2018-09-28T13:37:12.333Z,39.45
2018-09-28T13:39:40.927Z,39.25
2018-09-28T13:42:09.521Z,40.28
2018-09-28T13:44:38.055Z,39.62
2018-09-28T13:47:06.959Z,40.28
2018-09-28T13:49:35.568Z,39.94
2018-09-28T13:52:04.306Z,40.44
2018-09-28T13:54:32.946Z,40.71
2018-09-28T13:57:01.450Z,40.24
2018-09-28T13:59:30.016Z,40.60
2018-09-28T14:01:58.635Z,41.37
2018-09-28T14:04:28.114Z,40.68
2018-09-28T14:06:56.705Z,40.85
2018-09-28T14:09:25.144Z,40.59
2018-09-28T14:11:53.729Z,40.92
2018-09-28T14:14:22.305Z,40.91
2018-09-28T14:16:50.937Z,41.01
2018-09-28T14:19:19.476Z,41.23
2018-09-28T14:21:48.024Z,41.62
2018-09-28T14:24:16.800Z,41.80
2018-09-28T14:26:45.392Z,41.60
2018-09-28T14:29:13.933Z,42.04
2018-09-28T14:31:42.551Z,42.05
2018-09-28T14:34:11.201Z,40.81
2018-09-28T14:36:39.762Z,41.15
2018-09-28T14:39:09.700Z,40.71
2018-09-28T14:41:38.249Z,42.22
2018-09-28T14:44:07.156Z,41.94
2018-09-28T14:46:35.808Z,41.60
2018-09-28T14:49:04.381Z,41.79
2018-09-28T14:51:33.508Z,42.67
2018-09-28T14:54:02.143Z,42.45
2018-09-28T14:56:30.818Z,42.58
2018-09-28T14:58:59.408Z,43.72
2018-09-28T15:01:28.147Z,43.08
2018-09-28T15:03:56.595Z,43.93
2018-09-28T15:06:25.215Z,43.62
2018-09-28T15:08:53.732Z,44.53
2018-09-28T15:11:22.371Z,43.75
2018-09-28T15:13:50.939Z,43.40
2018-09-28T15:16:19.557Z,43.77
2018-09-28T15:18:48.134Z,43.76
2018-09-28T15:21:16.652Z,43.54
2018-09-28T15:23:45.925Z,42.96
2018-09-28T15:26:14.485Z,43.37
2018-09-28T15:28:43.028Z,44.21
2018-09-28T15:31:11.632Z,44.16
2018-09-28T15:33:40.160Z,44.16
2018-09-28T15:36:08.773Z,43.86
2018-09-28T15:38:37.552Z,44.15
2018-09-28T15:41:06.096Z,44.85
2018-09-28T15:43:34.627Z,44.49
2018-09-28T15:46:03.194Z,43.62
2018-09-28T15:48:31.808Z,44.26
2018-09-28T15:51:00.357Z,43.95
2018-09-28T15:53:29.096Z,43.89
2018-09-28T15:55:57.667Z,44.62
2018-09-28T15:58:26.188Z,45.23
2018-09-28T16:00:54.739Z,44.95
2018-09-28T16:03:23.299Z,45.96
2018-09-28T16:05:52.644Z,46.73
2018-09-28T16:08:21.204Z,46.81
2018-09-28T16:10:49.737Z,47.20
2018-09-28T16:13:18.308Z,48.63
2018-09-28T16:15:46.879Z,48.45
2018-09-28T16:39:36.332Z,52.94
2018-09-28T16:42:05.015Z,53.00
2018-09-28T16:44:33.626Z,53.29
2018-09-28T16:47:02.154Z,52.98
2018-09-28T16:49:30.712Z,53.22
2018-09-28T16:51:59.276Z,53.35
2018-09-28T16:54:27.819Z,52.59
2018-09-28T16:56:56.551Z,53.01
2018-09-28T16:59:25.617Z,53.24
2018-09-28T17:01:54.236Z,53.32
2018-09-28T17:04:22.793Z,54.59
2018-09-28T17:06:51.328Z,54.71
2018-09-28T17:09:19.942Z,54.11
2018-09-28T17:11:48.431Z,55.56
2018-09-28T17:14:17.001Z,55.44
2018-09-28T17:16:45.558Z,56.43
2018-09-28T17:19:14.094Z,56.27
2018-09-28T17:21:42.668Z,56.13
2018-09-28T17:24:11.211Z,55.36
2018-09-28T17:26:39.744Z,55.62
2018-09-28T17:29:08.329Z,56.60
2018-09-28T17:31:37.051Z,56.77
2018-09-28T17:34:05.593Z,57.18
2018-09-28T17:36:34.253Z,57.27
2018-09-28T17:39:02.894Z,57.20
2018-09-28T17:41:31.448Z,57.31
2018-09-28T17:44:00.065Z,57.45
2018-09-28T17:46:28.640Z,57.61
2018-09-28T17:48:57.172Z,57.15
2018-09-28T17:51:25.728Z,56.78
2018-09-28T17:53:54.308Z,56.51
2018-09-28T17:56:22.879Z,57.11
2018-09-28T17:58:51.481Z,57.44
2018-09-28T18:01:20.019Z,58.16
2018-09-28T18:03:48.584Z,59.91
2018-09-28T18:06:17.580Z,60.57
2018-09-28T18:08:46.141Z,61.50
2018-09-28T18:11:14.891Z,61.22
2018-09-28T18:13:43.460Z,60.88
2018-09-28T18:16:12.084Z,61.11
2018-09-28T18:18:40.639Z,60.91
2018-09-28T18:21:09.442Z,60.29
2018-09-28T18:23:38.100Z,60.90
2018-09-28T18:26:06.805Z,60.18
2018-09-28T18:28:35.375Z,60.32
2018-09-28T18:31:04.061Z,60.28
2018-09-28T18:33:32.807Z,59.46
2018-09-28T18:36:01.350Z,59.51
2018-09-28T18:38:29.887Z,60.02
2018-09-28T18:40:58.436Z,59.92
2018-09-28T18:43:27.032Z,59.65
2018-09-28T18:45:55.556Z,59.44
2018-09-28T18:48:24.087Z,59.38
2018-09-28T18:50:52.635Z,59.92
2018-09-28T18:53:21.189Z,59.59
2018-09-28T18:55:49.745Z,59.84
2018-09-28T18:58:18.321Z,59.19
2018-09-28T19:00:47.005Z,59.22
2018-09-28T19:03:15.611Z,58.04
2018-09-28T19:05:44.159Z,54.69
2018-09-28T19:08:12.724Z,54.87
2018-09-28T19:10:41.272Z,52.67
2018-09-28T19:13:09.984Z,50.96
2018-09-28T19:15:38.451Z,50.66
2018-09-28T19:18:07.000Z,50.63
2018-09-28T19:20:35.544Z,50.88
2018-09-28T19:23:04.088Z,50.50
2018-09-28T19:25:32.631Z,49.31
2018-09-28T19:28:01.172Z,48.26
2018-09-28T19:30:29.728Z,49.32
2018-09-28T19:32:58.258Z,48.21
2018-09-28T19:35:26.814Z,49.06
2018-09-28T19:37:55.383Z,48.26
2018-09-28T19:40:23.973Z,47.10
2018-09-28T19:42:52.787Z,48.45
2018-09-28T19:45:21.311Z,46.81
2018-09-28T19:47:49.889Z,47.16
2018-09-28T19:50:18.422Z,47.60
2018-09-28T19:52:46.988Z,48.04
2018-09-28T19:55:15.560Z,48.08
2018-09-28T19:57:44.149Z,49.02
2018-09-28T20:00:12.725Z,49.00
2018-09-28T20:02:42.085Z,49.76
2018-09-28T20:05:10.624Z,49.38
2018-09-28T20:07:39.284Z,49.83
2018-09-28T20:10:07.930Z,49.95
2018-09-28T20:12:36.534Z,50.83
2018-09-28T20:15:05.124Z,51.70
2018-09-28T20:17:33.677Z,51.86
2018-09-28T20:20:02.314Z,53.47
2018-09-28T20:22:30.861Z,53.46
2018-09-28T20:24:59.461Z,53.67
2018-09-28T20:27:28.073Z,53.50
2018-09-28T20:29:56.880Z,54.21
2018-09-28T20:32:25.464Z,54.64
2018-09-28T20:34:54.097Z,55.15
2018-09-28T20:37:22.760Z,54.85
2018-09-28T20:39:51.377Z,55.06
2018-09-28T20:42:20.056Z,56.75
2018-09-28T20:44:48.632Z,56.74
2018-09-28T20:47:17.201Z,57.60
2018-09-28T20:49:45.789Z,57.24
2018-09-28T20:52:14.342Z,58.19
2018-09-28T20:54:42.888Z,58.69
2018-09-28T20:57:11.478Z,58.74
2018-09-28T20:59:40.144Z,58.98
2018-09-28T21:02:08.760Z,59.75
2018-09-28T21:04:37.364Z,60.03
2018-09-28T21:07:05.925Z,60.48
2018-09-28T21:09:34.490Z,60.67
2018-09-28T21:12:03.020Z,60.38
2018-09-28T21:14:37.824Z,59.85
2018-09-28T21:17:06.572Z,59.87
2018-09-28T21:19:35.142Z,60.27
2018-09-28T21:22:03.783Z,59.96
2018-09-28T21:24:32.391Z,59.83
2018-09-28T21:27:00.959Z,60.22
2018-09-28T21:29:29.588Z,60.83
2018-09-28T21:31:58.127Z,59.72
2018-09-28T21:34:26.656Z,57.80
2018-09-28T21:36:55.234Z,55.95
2018-09-28T21:39:23.759Z,55.19
2018-09-28T21:41:52.340Z,53.14
2018-09-28T21:44:20.911Z,53.31
2018-09-28T21:46:49.484Z,52.51
2018-09-28T21:49:18.022Z,53.11
2018-09-28T21:51:46.539Z,53.15
2018-09-28T21:54:15.118Z,53.24
2018-09-28T21:56:43.673Z,53.19
2018-09-28T21:59:12.205Z,53.69
2018-09-28T22:01:40.752Z,52.73
2018-09-28T22:04:09.288Z,52.94
2018-09-28T22:06:37.828Z,52.74
2018-09-28T22:09:07.562Z,52.30
2018-09-28T22:11:36.113Z,52.42
2018-09-28T22:14:04.777Z,53.57
2018-09-28T22:16:33.368Z,54.22
2018-09-28T23:10:50.234Z,55.33
2018-09-28T23:13:18.797Z,55.77
2018-09-28T23:15:47.419Z,56.00
2018-09-28T23:18:15.964Z,55.86
2018-09-28T23:20:44.511Z,56.38
2018-09-28T23:23:13.183Z,56.93
2018-09-28T23:25:41.745Z,55.90
2018-09-28T23:28:10.301Z,55.92
2018-09-28T23:30:38.827Z,55.81
2018-09-28T23:33:07.395Z,57.02
2018-09-28T23:35:35.940Z,57.66
2018-09-28T23:38:04.481Z,56.81
2018-09-28T23:40:33.029Z,57.04
2018-09-28T23:43:01.580Z,57.85
2018-09-28T23:45:30.126Z,56.43
2018-09-28T23:47:58.664Z,56.82
2018-09-28T23:50:27.244Z,55.32
2018-09-28T23:52:55.799Z,56.40
2018-09-28T23:55:24.381Z,55.04
2018-09-28T23:57:52.908Z,55.23
